sensor_id;sensor_type;location;lat;lon;timestamp;pressure;altitude;pressure_sealevel;temperature;humidity
65800;BME280;52544;48.116;11.660;2022-11-24T00:01:21;94872.41;;;6.16;100.00
65800;BME280;52544;48.116;11.660;2022-11-24T00:03:53;94880.28;;;6.16;100.00
65800;BME280;52544;48.116;11.660;2022-11-24T00:06:19;94888.41;;;6.13;100.00
65800;BME280;52544;48.116;11.660;2022-11-24T00:08:45;94892.91;;;6.11;100.00
65800;BME280;52544;48.116;11.660;2022-11-24T00:11:13;94894.34;;;6.15;100.00
65800;BME280;52544;48.116;11.660;2022-11-24T00:13:39;94889.47;;;6.11;100.00
65800;BME280;52544;48.116;11.660;2022-11-24T00:18:34;94891.84;;;6.14;100.00
65800;BME280;52544;48.116;11.660;2022-11-24T00:20:59;94899.97;;;6.22;100.00
65800;BME280;52544;48.116;11.660;2022-11-24T00:23:25;94896.88;;;6.17;100.00
65800;BME280;52544;48.116;11.660;2022-11-24T00:25:50;94897.56;;;6.19;100.00
65800;BME280;52544;48.116;11.660;2022-11-24T00:28:16;94896.97;;;6.26;100.00
65800;BME280;52544;48.116;11.660;2022-11-24T00:30:41;94895.31;;;6.25;100.00
65800;BME280;52544;48.116;11.660;2022-11-24T00:33:07;94908.81;;;6.21;100.00
65800;BME280;52544;48.116;11.660;2022-11-24T00:35:32;94907.25;;;6.18;100.00
65800;BME280;52544;48.116;11.660;2022-11-24T00:37:58;94913.69;;;6.14;100.00
65800;BME280;52544;48.116;11.660;2022-11-24T00:40:23;94915.88;;;6.20;100.00
65800;BME280;52544;48.116;11.660;2022-11-24T00:42:48;94921.13;;;6.20;100.00
65800;BME280;52544;48.116;11.660;2022-11-24T00:45:14;94927.53;;;6.28;100.00
65800;BME280;52544;48.116;11.660;2022-11-24T00:47:39;94936.63;;;6.23;100.00
65800;BME280;52544;48.116;11.660;2022-11-24T00:50:05;94933.06;;;6.24;100.00
65800;BME280;52544;48.116;11.660;2022-11-24T00:52:31;94935.69;;;6.24;100.00
65800;BME280;52544;48.116;11.660;2022-11-24T00:54:56;94944.50;;;6.23;100.00
65800;BME280;52544;48.116;11.660;2022-11-24T00:57:22;94938.31;;;6.24;100.00
65800;BME280;52544;48.116;11.660;2022-11-24T00:59:47;94948.09;;;6.22;100.00
65800;BME280;52544;48.116;11.660;2022-11-24T01:02:12;94955.28;;;6.20;100.00
65800;BME280;52544;48.116;11.660;2022-11-24T01:04:38;94959.19;;;6.26;100.00
65800;BME280;52544;48.116;11.660;2022-11-24T01:07:03;94963.25;;;6.30;100.00
65800;BME280;52544;48.116;11.660;2022-11-24T01:09:29;94973.41;;;6.23;100.00
65800;BME280;52544;48.116;11.660;2022-11-24T01:11:54;94980.81;;;6.30;100.00
65800;BME280;52544;48.116;11.660;2022-11-24T01:14:26;94981.41;;;6.22;100.00
65800;BME280;52544;48.116;11.660;2022-11-24T01:16:52;94977.47;;;6.28;100.00
65800;BME280;52544;48.116;11.660;2022-11-24T01:19:18;94980.69;;;6.31;100.00
65800;BME280;52544;48.116;11.660;2022-11-24T01:21:43;94994.78;;;6.19;100.00
65800;BME280;52544;48.116;11.660;2022-11-24T01:24:09;94993.25;;;6.16;100.00
65800;BME280;52544;48.116;11.660;2022-11-24T01:26:35;94993.00;;;6.08;100.00
65800;BME280;52544;48.116;11.660;2022-11-24T01:29:01;94999.78;;;6.11;100.00
65800;BME280;52544;48.116;11.660;2022-11-24T01:31:26;95001.59;;;6.21;100.00
65800;BME280;52544;48.116;11.660;2022-11-24T01:33:52;95005.19;;;6.20;100.00
65800;BME280;52544;48.116;11.660;2022-11-24T01:36:18;95008.75;;;6.19;100.00
65800;BME280;52544;48.116;11.660;2022-11-24T01:38:44;95006.47;;;6.15;100.00
65800;BME280;52544;48.116;11.660;2022-11-24T01:41:13;95007.06;;;6.07;100.00
65800;BME280;52544;48.116;11.660;2022-11-24T01:43:39;95011.38;;;6.08;100.00
65800;BME280;52544;48.116;11.660;2022-11-24T01:48:50;95027.59;;;6.02;100.00
65800;BME280;52544;48.116;11.660;2022-11-24T01:51:24;95024.00;;;6.03;100.00
65800;BME280;52544;48.116;11.660;2022-11-24T01:54:01;95025.22;;;6.10;100.00
65800;BME280;52544;48.116;11.660;2022-11-24T01:56:27;95036.94;;;6.06;100.00
65800;BME280;52544;48.116;11.660;2022-11-24T01:58:56;95043.63;;;5.99;100.00
65800;BME280;52544;48.116;11.660;2022-11-24T02:01:24;95040.25;;;5.97;100.00
65800;BME280;52544;48.116;11.660;2022-11-24T02:03:51;95048.34;;;5.94;100.00
65800;BME280;52544;48.116;11.660;2022-11-24T02:06:28;95047.78;;;6.01;100.00
65800;BME280;52544;48.116;11.660;2022-11-24T02:08:59;95048.97;;;5.97;100.00
65800;BME280;52544;48.116;11.660;2022-11-24T02:11:29;95056.13;;;5.95;100.00
65800;BME280;52544;48.116;11.660;2022-11-24T02:13:57;95054.75;;;5.90;100.00
65800;BME280;52544;48.116;11.660;2022-11-24T02:16:24;95064.56;;;5.88;100.00
65800;BME280;52544;48.116;11.660;2022-11-24T02:18:50;95066.03;;;5.92;100.00
65800;BME280;52544;48.116;11.660;2022-11-24T02:21:16;95068.66;;;5.92;100.00
65800;BME280;52544;48.116;11.660;2022-11-24T02:26:42;95072.72;;;5.96;100.00
65800;BME280;52544;48.116;11.660;2022-11-24T02:29:09;95081.16;;;5.88;100.00
65800;BME280;52544;48.116;11.660;2022-11-24T02:31:36;95082.28;;;5.97;100.00
65800;BME280;52544;48.116;11.660;2022-11-24T02:34:02;95080.09;;;5.91;100.00
65800;BME280;52544;48.116;11.660;2022-11-24T02:36:27;95088.19;;;5.88;100.00
65800;BME280;52544;48.116;11.660;2022-11-24T02:38:53;95081.84;;;5.90;100.00
65800;BME280;52544;48.116;11.660;2022-11-24T02:41:20;95097.03;;;5.87;100.00
65800;BME280;52544;48.116;11.660;2022-11-24T02:43:53;95092.84;;;5.84;100.00
65800;BME280;52544;48.116;11.660;2022-11-24T02:46:20;95098.91;;;5.85;100.00
65800;BME280;52544;48.116;11.660;2022-11-24T02:48:45;95103.72;;;5.91;100.00
65800;BME280;52544;48.116;11.660;2022-11-24T02:51:11;95100.88;;;5.94;100.00
65800;BME280;52544;48.116;11.660;2022-11-24T02:53:36;95100.66;;;5.97;100.00
65800;BME280;52544;48.116;11.660;2022-11-24T02:56:02;95105.44;;;5.92;100.00
65800;BME280;52544;48.116;11.660;2022-11-24T02:58:27;95106.25;;;5.92;100.00
65800;BME280;52544;48.116;11.660;2022-11-24T03:00:53;95106.03;;;5.95;100.00
65800;BME280;52544;48.116;11.660;2022-11-24T03:03:22;95107.59;;;5.98;100.00
65800;BME280;52544;48.116;11.660;2022-11-24T03:05:48;95107.38;;;6.01;100.00
65800;BME280;52544;48.116;11.660;2022-11-24T03:08:16;95113.44;;;6.01;100.00
65800;BME280;52544;48.116;11.660;2022-11-24T03:10:42;95112.13;;;5.96;100.00
65800;BME280;52544;48.116;11.660;2022-11-24T03:13:07;95118.34;;;5.95;100.00
65800;BME280;52544;48.116;11.660;2022-11-24T03:15:33;95120.31;;;5.91;100.00
65800;BME280;52544;48.116;11.660;2022-11-24T03:17:58;95115.47;;;5.98;100.00
65800;BME280;52544;48.116;11.660;2022-11-24T03:20:24;95121.53;;;5.98;100.00
65800;BME280;52544;48.116;11.660;2022-11-24T03:22:50;95126.38;;;6.05;100.00
65800;BME280;52544;48.116;11.660;2022-11-24T03:25:16;95128.38;;;6.01;100.00
65800;BME280;52544;48.116;11.660;2022-11-24T03:27:41;95131.97;;;6.00;100.00
65800;BME280;52544;48.116;11.660;2022-11-24T03:30:08;95134.31;;;5.92;100.00
65800;BME280;52544;48.116;11.660;2022-11-24T03:32:33;95141.34;;;5.91;100.00
65800;BME280;52544;48.116;11.660;2022-11-24T03:34:59;95143.78;;;6.06;100.00
65800;BME280;52544;48.116;11.660;2022-11-24T03:37:24;95141.97;;;5.95;100.00
65800;BME280;52544;48.116;11.660;2022-11-24T03:39:50;95146.38;;;5.94;100.00
65800;BME280;52544;48.116;11.660;2022-11-24T03:42:15;95137.25;;;5.87;100.00
65800;BME280;52544;48.116;11.660;2022-11-24T03:44:41;95151.22;;;5.88;100.00
65800;BME280;52544;48.116;11.660;2022-11-24T03:47:07;95140.84;;;5.86;100.00
65800;BME280;52544;48.116;11.660;2022-11-24T03:49:33;95148.69;;;5.99;100.00
65800;BME280;52544;48.116;11.660;2022-11-24T03:51:58;95137.97;;;5.89;100.00
65800;BME280;52544;48.116;11.660;2022-11-24T03:54:24;95147.44;;;5.92;100.00
65800;BME280;52544;48.116;11.660;2022-11-24T03:56:49;95157.31;;;5.88;100.00
65800;BME280;52544;48.116;11.660;2022-11-24T03:59:15;95157.09;;;5.91;100.00
65800;BME280;52544;48.116;11.660;2022-11-24T04:01:41;95160.47;;;5.93;100.00
65800;BME280;52544;48.116;11.660;2022-11-24T04:04:09;95164.66;;;5.96;100.00
65800;BME280;52544;48.116;11.660;2022-11-24T04:06:34;95166.53;;;5.94;100.00
65800;BME280;52544;48.116;11.660;2022-11-24T04:09:00;95166.19;;;5.98;100.00
65800;BME280;52544;48.116;11.660;2022-11-24T04:11:25;95164.31;;;6.00;100.00
65800;BME280;52544;48.116;11.660;2022-11-24T04:14:09;95166.84;;;5.89;100.00
65800;BME280;52544;48.116;11.660;2022-11-24T04:16:35;95165.31;;;5.87;100.00
65800;BME280;52544;48.116;11.660;2022-11-24T04:19:00;95167.94;;;5.87;100.00
65800;BME280;52544;48.116;11.660;2022-11-24T04:21:26;95175.69;;;5.88;100.00
65800;BME280;52544;48.116;11.660;2022-11-24T04:23:51;95173.41;;;5.84;100.00
65800;BME280;52544;48.116;11.660;2022-11-24T04:26:17;95170.50;;;5.75;100.00
65800;BME280;52544;48.116;11.660;2022-11-24T04:28:42;95178.66;;;5.84;100.00
65800;BME280;52544;48.116;11.660;2022-11-24T04:31:07;95174.56;;;5.80;100.00
65800;BME280;52544;48.116;11.660;2022-11-24T04:33:33;95183.41;;;5.79;100.00
65800;BME280;52544;48.116;11.660;2022-11-24T04:35:59;95179.22;;;5.76;100.00
65800;BME280;52544;48.116;11.660;2022-11-24T04:38:24;95182.16;;;5.71;100.00
65800;BME280;52544;48.116;11.660;2022-11-24T04:40:49;95185.53;;;5.73;100.00
65800;BME280;52544;48.116;11.660;2022-11-24T04:43:15;95196.03;;;5.73;100.00
65800;BME280;52544;48.116;11.660;2022-11-24T04:45:43;95193.56;;;5.83;100.00
65800;BME280;52544;48.116;11.660;2022-11-24T04:48:08;95195.78;;;5.76;100.00
65800;BME280;52544;48.116;11.660;2022-11-24T04:50:34;95199.88;;;5.81;100.00
65800;BME280;52544;48.116;11.660;2022-11-24T04:53:00;95200.00;;;5.79;100.00
65800;BME280;52544;48.116;11.660;2022-11-24T04:55:26;95203.66;;;5.76;100.00
65800;BME280;52544;48.116;11.660;2022-11-24T04:57:51;95199.16;;;5.79;100.00
65800;BME280;52544;48.116;11.660;2022-11-24T05:00:17;95214.09;;;5.78;100.00
65800;BME280;52544;48.116;11.660;2022-11-24T05:02:43;95203.97;;;5.85;100.00
65800;BME280;52544;48.116;11.660;2022-11-24T05:05:09;95210.66;;;5.89;100.00
65800;BME280;52544;48.116;11.660;2022-11-24T05:07:34;95218.66;;;5.87;100.00
65800;BME280;52544;48.116;11.660;2022-11-24T05:10:00;95222.84;;;5.90;100.00
65800;BME280;52544;48.116;11.660;2022-11-24T05:12:56;95225.16;;;5.94;100.00
65800;BME280;52544;48.116;11.660;2022-11-24T05:15:22;95227.06;;;5.92;100.00
65800;BME280;52544;48.116;11.660;2022-11-24T05:17:47;95229.50;;;5.95;100.00
65800;BME280;52544;48.116;11.660;2022-11-24T05:20:14;95232.94;;;5.96;100.00
65800;BME280;52544;48.116;11.660;2022-11-24T05:22:39;95234.63;;;5.97;100.00
65800;BME280;52544;48.116;11.660;2022-11-24T05:25:05;95236.19;;;5.99;100.00
65800;BME280;52544;48.116;11.660;2022-11-24T05:27:30;95235.56;;;5.96;100.00
65800;BME280;52544;48.116;11.660;2022-11-24T05:29:56;95236.28;;;5.98;100.00
65800;BME280;52544;48.116;11.660;2022-11-24T05:32:22;95237.88;;;6.00;100.00
65800;BME280;52544;48.116;11.660;2022-11-24T05:34:47;95249.72;;;6.06;100.00
65800;BME280;52544;48.116;11.660;2022-11-24T05:37:13;95247.81;;;6.08;100.00
65800;BME280;52544;48.116;11.660;2022-11-24T05:39:38;95264.75;;;6.04;100.00
65800;BME280;52544;48.116;11.660;2022-11-24T05:42:05;95257.09;;;6.01;100.00
65800;BME280;52544;48.116;11.660;2022-11-24T05:44:50;95256.97;;;6.03;100.00
65800;BME280;52544;48.116;11.660;2022-11-24T05:47:16;95256.88;;;6.04;100.00
65800;BME280;52544;48.116;11.660;2022-11-24T05:49:41;95263.47;;;6.10;100.00
65800;BME280;52544;48.116;11.660;2022-11-24T05:52:07;95264.50;;;6.07;100.00
65800;BME280;52544;48.116;11.660;2022-11-24T05:54:32;95265.25;;;6.09;100.00
65800;BME280;52544;48.116;11.660;2022-11-24T05:56:57;95269.47;;;6.12;100.00
65800;BME280;52544;48.116;11.660;2022-11-24T05:59:23;95270.78;;;6.17;100.00
65800;BME280;52544;48.116;11.660;2022-11-24T06:01:48;95268.16;;;6.17;100.00
65800;BME280;52544;48.116;11.660;2022-11-24T06:04:14;95272.69;;;6.15;100.00
65800;BME280;52544;48.116;11.660;2022-11-24T06:06:39;95275.09;;;6.18;100.00
65800;BME280;52544;48.116;11.660;2022-11-24T06:09:05;95280.75;;;6.25;100.00
65800;BME280;52544;48.116;11.660;2022-11-24T06:11:30;95279.28;;;6.21;100.00
65800;BME280;52544;48.116;11.660;2022-11-24T06:13:55;95280.50;;;6.28;100.00
65800;BME280;52544;48.116;11.660;2022-11-24T06:16:21;95293.56;;;6.30;100.00
65800;BME280;52544;48.116;11.660;2022-11-24T06:18:47;95293.31;;;6.33;100.00
65800;BME280;52544;48.116;11.660;2022-11-24T06:21:12;95300.69;;;6.28;100.00
65800;BME280;52544;48.116;11.660;2022-11-24T06:23:38;95294.59;;;6.27;100.00
65800;BME280;52544;48.116;11.660;2022-11-24T06:26:04;95295.91;;;6.21;100.00
65800;BME280;52544;48.116;11.660;2022-11-24T06:28:30;95300.31;;;6.21;100.00
65800;BME280;52544;48.116;11.660;2022-11-24T06:31:02;95304.50;;;6.23;100.00
65800;BME280;52544;48.116;11.660;2022-11-24T06:33:32;95310.25;;;6.29;100.00
65800;BME280;52544;48.116;11.660;2022-11-24T06:36:00;95309.88;;;6.22;100.00
65800;BME280;52544;48.116;11.660;2022-11-24T06:38:26;95316.91;;;6.21;100.00
65800;BME280;52544;48.116;11.660;2022-11-24T06:41:02;95309.56;;;6.14;100.00
65800;BME280;52544;48.116;11.660;2022-11-24T06:43:29;95318.91;;;6.18;100.00
65800;BME280;52544;48.116;11.660;2022-11-24T06:45:55;95312.84;;;6.17;100.00
65800;BME280;52544;48.116;11.660;2022-11-24T06:48:21;95318.81;;;6.19;100.00
65800;BME280;52544;48.116;11.660;2022-11-24T06:50:46;95326.81;;;6.18;100.00
65800;BME280;52544;48.116;11.660;2022-11-24T06:53:12;95323.63;;;6.25;100.00
65800;BME280;52544;48.116;11.660;2022-11-24T06:55:38;95327.59;;;6.31;100.00
65800;BME280;52544;48.116;11.660;2022-11-24T06:58:04;95330.28;;;6.42;100.00
65800;BME280;52544;48.116;11.660;2022-11-24T07:00:29;95328.44;;;6.32;100.00
65800;BME280;52544;48.116;11.660;2022-11-24T07:02:59;95329.88;;;6.36;100.00
65800;BME280;52544;48.116;11.660;2022-11-24T07:05:25;95330.09;;;6.33;100.00
65800;BME280;52544;48.116;11.660;2022-11-24T07:07:51;95329.50;;;6.29;100.00
65800;BME280;52544;48.116;11.660;2022-11-24T07:10:16;95334.75;;;6.29;100.00
65800;BME280;52544;48.116;11.660;2022-11-24T07:12:42;95335.34;;;6.33;100.00
65800;BME280;52544;48.116;11.660;2022-11-24T07:15:08;95333.25;;;6.38;100.00
65800;BME280;52544;48.116;11.660;2022-11-24T07:17:40;95339.44;;;6.37;100.00
65800;BME280;52544;48.116;11.660;2022-11-24T07:20:07;95340.19;;;6.39;100.00
65800;BME280;52544;48.116;11.660;2022-11-24T07:22:33;95338.50;;;6.38;100.00
65800;BME280;52544;48.116;11.660;2022-11-24T07:24:58;95341.03;;;6.39;100.00
65800;BME280;52544;48.116;11.660;2022-11-24T07:27:25;95341.03;;;6.39;100.00
65800;BME280;52544;48.116;11.660;2022-11-24T07:29:51;95341.34;;;6.35;100.00
65800;BME280;52544;48.116;11.660;2022-11-24T07:32:16;95341.63;;;6.43;100.00
65800;BME280;52544;48.116;11.660;2022-11-24T07:34:42;95338.06;;;6.44;100.00
65800;BME280;52544;48.116;11.660;2022-11-24T07:37:07;95338.06;;;6.44;100.00
65800;BME280;52544;48.116;11.660;2022-11-24T07:39:32;95339.72;;;6.45;100.00
65800;BME280;52544;48.116;11.660;2022-11-24T07:41:58;95347.84;;;6.42;100.00
65800;BME280;52544;48.116;11.660;2022-11-24T07:44:25;95341.19;;;6.49;100.00
65800;BME280;52544;48.116;11.660;2022-11-24T07:46:51;95345.25;;;6.53;100.00
65800;BME280;52544;48.116;11.660;2022-11-24T07:49:17;95352.25;;;6.65;100.00
65800;BME280;52544;48.116;11.660;2022-11-24T07:51:42;95350.94;;;6.71;100.00
65800;BME280;52544;48.116;11.660;2022-11-24T07:54:08;95353.41;;;6.85;100.00
65800;BME280;52544;48.116;11.660;2022-11-24T07:56:34;95359.78;;;6.94;100.00
65800;BME280;52544;48.116;11.660;2022-11-24T07:58:59;95356.94;;;6.97;100.00
65800;BME280;52544;48.116;11.660;2022-11-24T08:01:25;95353.00;;;7.03;99.54
65800;BME280;52544;48.116;11.660;2022-11-24T08:03:50;95355.78;;;7.12;97.47
65800;BME280;52544;48.116;11.660;2022-11-24T08:06:16;95347.56;;;7.28;96.60
65800;BME280;52544;48.116;11.660;2022-11-24T08:08:42;95340.63;;;7.38;95.07
65800;BME280;52544;48.116;11.660;2022-11-24T08:11:13;95345.78;;;7.51;93.69
65800;BME280;52544;48.116;11.660;2022-11-24T08:13:40;95345.06;;;7.60;92.29
65800;BME280;52544;48.116;11.660;2022-11-24T08:16:07;95333.59;;;7.72;90.99
65800;BME280;52544;48.116;11.660;2022-11-24T08:18:34;95327.38;;;7.85;90.24
65800;BME280;52544;48.116;11.660;2022-11-24T08:21:01;95329.78;;;7.99;87.61
65800;BME280;52544;48.116;11.660;2022-11-24T08:23:26;95328.56;;;8.03;87.45
65800;BME280;52544;48.116;11.660;2022-11-24T08:25:52;95334.28;;;8.19;87.84
65800;BME280;52544;48.116;11.660;2022-11-24T08:28:19;95330.41;;;8.35;85.88
65800;BME280;52544;48.116;11.660;2022-11-24T08:30:45;95333.16;;;8.44;85.76
65800;BME280;52544;48.116;11.660;2022-11-24T08:33:10;95342.56;;;8.69;85.69
65800;BME280;52544;48.116;11.660;2022-11-24T08:35:37;95333.44;;;8.73;82.32
65800;BME280;52544;48.116;11.660;2022-11-24T08:38:03;95337.81;;;8.63;81.56
65800;BME280;52544;48.116;11.660;2022-11-24T08:40:29;95342.41;;;8.50;82.33
65800;BME280;52544;48.116;11.660;2022-11-24T08:42:59;95342.44;;;8.39;83.34
65800;BME280;52544;48.116;11.660;2022-11-24T08:45:25;95354.16;;;8.35;82.50
65800;BME280;52544;48.116;11.660;2022-11-24T08:47:55;95347.69;;;8.39;82.47
65800;BME280;52544;48.116;11.660;2022-11-24T08:50:22;95354.50;;;8.30;82.43
65800;BME280;52544;48.116;11.660;2022-11-24T08:52:50;95357.75;;;8.22;83.21
65800;BME280;52544;48.116;11.660;2022-11-24T08:55:16;95347.72;;;8.16;83.68
65800;BME280;52544;48.116;11.660;2022-11-24T08:57:41;95348.31;;;8.09;82.84
65800;BME280;52544;48.116;11.660;2022-11-24T09:00:07;95347.00;;;8.03;83.34
65800;BME280;52544;48.116;11.660;2022-11-24T09:02:32;95346.28;;;8.01;83.44
65800;BME280;52544;48.116;11.660;2022-11-24T09:04:58;95352.03;;;8.06;83.57
65800;BME280;52544;48.116;11.660;2022-11-24T09:07:23;95347.84;;;8.04;82.74
65800;BME280;52544;48.116;11.660;2022-11-24T09:09:49;95347.44;;;8.19;84.38
65800;BME280;52544;48.116;11.660;2022-11-24T09:12:14;95350.59;;;8.24;82.54
65800;BME280;52544;48.116;11.660;2022-11-24T09:14:40;95352.50;;;8.22;82.87
65800;BME280;52544;48.116;11.660;2022-11-24T09:17:05;95360.03;;;8.27;82.61
65800;BME280;52544;48.116;11.660;2022-11-24T09:19:31;95351.66;;;8.22;83.89
65800;BME280;52544;48.116;11.660;2022-11-24T09:21:56;95355.72;;;8.26;81.38
65800;BME280;52544;48.116;11.660;2022-11-24T09:24:22;95348.19;;;8.21;81.95
65800;BME280;52544;48.116;11.660;2022-11-24T09:26:47;95363.41;;;8.18;82.18
65800;BME280;52544;48.116;11.660;2022-11-24T09:29:13;95347.47;;;8.08;83.11
65800;BME280;52544;48.116;11.660;2022-11-24T09:31:38;95348.31;;;8.20;82.11
65800;BME280;52544;48.116;11.660;2022-11-24T09:34:06;95353.91;;;8.26;82.19
65800;BME280;52544;48.116;11.660;2022-11-24T09:36:32;95350.06;;;8.53;80.84
65800;BME280;52544;48.116;11.660;2022-11-24T09:38:58;95353.38;;;8.66;80.68
65800;BME280;52544;48.116;11.660;2022-11-24T09:44:38;95348.06;;;8.77;79.73
65800;BME280;52544;48.116;11.660;2022-11-24T09:50:03;95347.84;;;8.69;78.98
65800;BME280;52544;48.116;11.660;2022-11-24T09:55:20;95351.69;;;8.65;79.00
65800;BME280;52544;48.116;11.660;2022-11-24T09:57:55;95350.72;;;8.66;79.30
65800;BME280;52544;48.116;11.660;2022-11-24T10:00:23;95357.94;;;8.64;80.00
65800;BME280;52544;48.116;11.660;2022-11-24T10:02:49;95358.63;;;8.66;78.74
65800;BME280;52544;48.116;11.660;2022-11-24T10:05:14;95364.28;;;8.62;78.54
65800;BME280;52544;48.116;11.660;2022-11-24T10:08:22;95365.06;;;8.85;77.53
65800;BME280;52544;48.116;11.660;2022-11-24T10:10:55;95359.19;;;9.13;75.52
65800;BME280;52544;48.116;11.660;2022-11-24T10:18:56;95355.94;;;9.72;70.53
65800;BME280;52544;48.116;11.660;2022-11-24T10:21:53;95361.56;;;9.58;71.72
65800;BME280;52544;48.116;11.660;2022-11-24T10:27:40;95371.16;;;9.17;73.56
65800;BME280;52544;48.116;11.660;2022-11-24T10:30:19;95372.00;;;8.97;75.83
65800;BME280;52544;48.116;11.660;2022-11-24T10:32:55;95378.13;;;8.86;77.00
65800;BME280;52544;48.116;11.660;2022-11-24T10:35:28;95390.94;;;8.59;80.12
65800;BME280;52544;48.116;11.660;2022-11-24T10:38:00;95384.63;;;8.39;83.76
65800;BME280;52544;48.116;11.660;2022-11-24T10:40:37;95398.63;;;8.06;88.65
65800;BME280;52544;48.116;11.660;2022-11-24T10:43:03;95400.69;;;7.91;91.58
65800;BME280;52544;48.116;11.660;2022-11-24T10:45:34;95407.13;;;7.75;93.59
65800;BME280;52544;48.116;11.660;2022-11-24T10:48:03;95407.59;;;7.69;97.50
65800;BME280;52544;48.116;11.660;2022-11-24T10:50:32;95421.44;;;7.49;99.98
65800;BME280;52544;48.116;11.660;2022-11-24T10:53:17;95423.81;;;7.41;100.00
65800;BME280;52544;48.116;11.660;2022-11-24T10:58:36;95423.09;;;7.04;100.00
65800;BME280;52544;48.116;11.660;2022-11-24T11:03:48;95430.09;;;6.68;100.00
65800;BME280;52544;48.116;11.660;2022-11-24T11:06:29;95425.09;;;6.52;100.00
65800;BME280;52544;48.116;11.660;2022-11-24T11:11:37;95423.63;;;6.48;100.00
65800;BME280;52544;48.116;11.660;2022-11-24T11:14:09;95420.28;;;6.46;100.00
65800;BME280;52544;48.116;11.660;2022-11-24T11:17:00;95425.13;;;6.39;100.00
65800;BME280;52544;48.116;11.660;2022-11-24T11:19:39;95419.53;;;6.44;100.00
65800;BME280;52544;48.116;11.660;2022-11-24T11:24:38;95418.59;;;6.45;100.00
65800;BME280;52544;48.116;11.660;2022-11-24T11:27:23;95422.16;;;6.44;100.00
65800;BME280;52544;48.116;11.660;2022-11-24T11:29:52;95419.66;;;6.42;100.00
65800;BME280;52544;48.116;11.660;2022-11-24T11:32:20;95421.88;;;6.36;100.00
65800;BME280;52544;48.116;11.660;2022-11-24T11:34:47;95418.00;;;6.29;100.00
65800;BME280;52544;48.116;11.660;2022-11-24T11:37:13;95424.22;;;6.28;100.00
65800;BME280;52544;48.116;11.660;2022-11-24T11:39:42;95426.63;;;6.31;100.00
65800;BME280;52544;48.116;11.660;2022-11-24T11:45:14;95431.66;;;6.34;100.00
65800;BME280;52544;48.116;11.660;2022-11-24T11:47:56;95435.03;;;6.36;100.00
65800;BME280;52544;48.116;11.660;2022-11-24T11:50:27;95438.16;;;6.41;100.00
65800;BME280;52544;48.116;11.660;2022-11-24T11:58:40;95434.59;;;6.42;100.00
65800;BME280;52544;48.116;11.660;2022-11-24T12:09:54;95443.41;;;6.41;100.00
65800;BME280;52544;48.116;11.660;2022-11-24T12:20:36;95455.34;;;6.58;100.00
65800;BME280;52544;48.116;11.660;2022-11-24T12:26:00;95454.31;;;6.60;100.00
65800;BME280;52544;48.116;11.660;2022-11-24T12:28:48;95458.41;;;6.64;100.00
65800;BME280;52544;48.116;11.660;2022-11-24T12:39:34;95463.44;;;6.67;100.00
65800;BME280;52544;48.116;11.660;2022-11-24T12:42:15;95462.28;;;6.71;100.00
65800;BME280;52544;48.116;11.660;2022-11-24T12:44:56;95474.25;;;6.75;100.00
65800;BME280;52544;48.116;11.660;2022-11-24T12:50:14;95459.38;;;6.50;100.00
65800;BME280;52544;48.116;11.660;2022-11-24T12:52:50;95457.94;;;6.70;100.00
65800;BME280;52544;48.116;11.660;2022-11-24T12:55:19;95469.72;;;6.78;100.00
65800;BME280;52544;48.116;11.660;2022-11-24T12:58:09;95468.59;;;6.93;100.00
65800;BME280;52544;48.116;11.660;2022-11-24T13:03:24;95471.28;;;7.04;100.00
65800;BME280;52544;48.116;11.660;2022-11-24T13:06:17;95469.09;;;6.98;100.00
65800;BME280;52544;48.116;11.660;2022-11-24T13:08:44;95461.09;;;6.99;100.00
65800;BME280;52544;48.116;11.660;2022-11-24T13:13:58;95474.59;;;6.95;100.00
65800;BME280;52544;48.116;11.660;2022-11-24T13:16:24;95475.88;;;6.89;100.00
65800;BME280;52544;48.116;11.660;2022-11-24T13:21:46;95492.84;;;6.85;100.00
65800;BME280;52544;48.116;11.660;2022-11-24T13:29:37;95485.03;;;6.60;100.00
65800;BME280;52544;48.116;11.660;2022-11-24T13:39:52;95491.69;;;6.40;100.00
65800;BME280;52544;48.116;11.660;2022-11-24T13:42:19;95482.22;;;6.50;100.00
65800;BME280;52544;48.116;11.660;2022-11-24T13:44:47;95491.78;;;6.51;100.00
65800;BME280;52544;48.116;11.660;2022-11-24T13:49:55;95504.47;;;6.57;100.00
65800;BME280;52544;48.116;11.660;2022-11-24T13:52:53;95495.22;;;7.01;100.00
65800;BME280;52544;48.116;11.660;2022-11-24T13:55:30;95493.44;;;7.13;100.00
65800;BME280;52544;48.116;11.660;2022-11-24T13:58:30;95492.44;;;7.03;100.00
65800;BME280;52544;48.116;11.660;2022-11-24T14:01:10;95496.38;;;6.97;100.00
65800;BME280;52544;48.116;11.660;2022-11-24T14:03:57;95498.44;;;6.81;100.00
65800;BME280;52544;48.116;11.660;2022-11-24T14:06:31;95499.31;;;6.68;100.00
65800;BME280;52544;48.116;11.660;2022-11-24T14:09:00;95513.63;;;6.64;100.00
65800;BME280;52544;48.116;11.660;2022-11-24T14:11:28;95506.38;;;6.55;100.00
65800;BME280;52544;48.116;11.660;2022-11-24T14:13:54;95508.19;;;6.42;100.00
65800;BME280;52544;48.116;11.660;2022-11-24T14:16:21;95518.72;;;6.42;100.00
65800;BME280;52544;48.116;11.660;2022-11-24T14:18:49;95515.53;;;6.37;100.00
65800;BME280;52544;48.116;11.660;2022-11-24T14:21:32;95513.47;;;6.42;100.00
65800;BME280;52544;48.116;11.660;2022-11-24T14:26:45;95508.25;;;6.53;100.00
65800;BME280;52544;48.116;11.660;2022-11-24T14:29:19;95504.19;;;6.49;100.00
65800;BME280;52544;48.116;11.660;2022-11-24T14:31:59;95506.91;;;6.47;100.00
65800;BME280;52544;48.116;11.660;2022-11-24T14:34:28;95504.63;;;6.43;100.00
65800;BME280;52544;48.116;11.660;2022-11-24T14:36:55;95518.88;;;6.64;100.00
65800;BME280;52544;48.116;11.660;2022-11-24T14:39:23;95523.97;;;6.79;100.00
65800;BME280;52544;48.116;11.660;2022-11-24T14:41:56;95521.16;;;6.82;100.00